Time;durP1;ratioP1;P1;durP2;ratioP2;P2;SDS_P1;SDS_P2;PMS_P1;PMS_P2;Temp;Humidity;BMP_temperature;BMP_pressure;BME280_temperature;BME280_humidity;BME280_pressure;Samples;Min_cycle;Max_cycle;Signal;HPM_P1;HPM_P2
2023/06/15 00:04:18;;;;;;;7.75;6.82;;;15.00;99.90;;;;;;10416696;28;20285;-85
2023/06/15 00:09:21;;;;;;;7.38;5.97;;;14.90;99.90;;;;;;10427831;28;20688;-84
2023/06/15 00:14:23;;;;;;;6.22;5.63;;;15.00;99.90;;;;;;10439202;28;20235;-85
2023/06/15 00:19:26;;;;;;;6.72;6.13;;;15.00;99.90;;;;;;10399111;28;20317;-84
2023/06/15 00:24:28;;;;;;;5.50;5.00;;;15.10;99.90;;;;;;10415476;28;20231;-84
2023/06/15 00:29:31;;;;;;;6.40;5.80;;;15.30;99.90;;;;;;10413953;28;20719;-85
2023/06/15 00:34:34;;;;;;;10.48;6.35;;;15.40;99.90;;;;;;10396573;28;20690;-85
2023/06/15 00:39:37;;;;;;;8.82;6.00;;;15.40;99.90;;;;;;10397586;28;20247;-85
2023/06/15 00:44:40;;;;;;;9.05;6.78;;;15.30;99.90;;;;;;10397236;28;20235;-85
2023/06/15 00:49:45;;;;;;;5.55;4.85;;;15.40;99.90;;;;;;10399611;28;20289;-85
2023/06/15 00:54:48;;;;;;;6.47;5.78;;;15.40;99.90;;;;;;10433622;28;20239;-85
2023/06/15 00:59:51;;;;;;;7.78;6.57;;;15.70;99.90;;;;;;10432188;28;20629;-84
2023/06/15 01:04:54;;;;;;;5.55;5.05;;;15.70;99.90;;;;;;10451993;28;20230;-84
2023/06/15 01:09:57;;;;;;;9.30;6.97;;;15.80;99.90;;;;;;10437101;28;20207;-85
2023/06/15 01:15:00;;;;;;;5.20;4.80;;;15.80;99.90;;;;;;10417008;28;20231;-85
2023/06/15 01:20:05;;;;;;;6.40;5.68;;;15.60;99.90;;;;;;10395014;28;20809;-85
2023/06/15 01:25:29;;;;;;;7.07;6.35;;;15.90;99.90;;;;;;10421970;28;20318;-85
2023/06/15 01:30:37;;;;;;;7.28;6.45;;;15.70;99.90;;;;;;10393716;28;20412;-85
2023/06/15 01:35:40;;;;;;;7.65;6.90;;;15.60;99.90;;;;;;10427670;28;20269;-85
2023/06/15 01:40:49;;;;;;;5.65;5.15;;;15.30;99.90;;;;;;10411269;28;20839;-85
2023/06/15 01:45:53;;;;;;;6.35;5.28;;;15.60;99.90;;;;;;10423732;28;20192;-85
2023/06/15 01:50:56;;;;;;;5.38;4.88;;;15.60;99.90;;;;;;10412468;28;20235;-85
2023/06/15 01:56:00;;;;;;;5.78;5.18;;;15.30;99.90;;;;;;10412359;28;20277;-85
2023/06/15 02:01:02;;;;;;;6.20;5.60;;;15.30;99.90;;;;;;10392253;28;20301;-85
2023/06/15 02:06:05;;;;;;;10.93;7.18;;;15.60;99.90;;;;;;10432151;28;20211;-85
2023/06/15 02:11:10;;;;;;;8.05;7.03;;;15.30;99.90;;;;;;10432530;28;20247;-85
2023/06/15 02:16:13;;;;;;;7.47;5.78;;;15.30;99.90;;;;;;10452153;28;20614;-85
2023/06/15 02:21:15;;;;;;;9.75;7.30;;;15.50;99.90;;;;;;10436665;28;20737;-84
2023/06/15 02:26:18;;;;;;;6.43;5.30;;;15.50;99.90;;;;;;10392490;28;20701;-85
2023/06/15 02:31:20;;;;;;;7.63;5.55;;;15.50;99.90;;;;;;10408954;28;20649;-85
2023/06/15 02:36:23;;;;;;;5.82;5.30;;;15.80;99.90;;;;;;10391505;28;20702;-85
2023/06/15 02:41:26;;;;;;;8.60;7.35;;;15.90;99.90;;;;;;10425371;28;20257;-85
2023/06/15 02:46:28;;;;;;;6.78;6.10;;;15.90;99.90;;;;;;10410128;28;20239;-85
2023/06/15 02:51:32;;;;;;;7.20;6.10;;;16.00;99.90;;;;;;10390855;28;20385;-85
2023/06/15 02:56:36;;;;;;;7.88;6.63;;;16.10;99.90;;;;;;10390522;28;20243;-85
2023/06/15 03:01:40;;;;;;;7.63;6.38;;;15.90;99.90;;;;;;10416728;28;20313;-85
2023/06/15 03:06:49;;;;;;;5.93;5.32;;;16.10;99.90;;;;;;10407014;28;20231;-85
2023/06/15 03:11:59;;;;;;;8.23;7.43;;;16.20;99.90;;;;;;10359648;28;20275;-85
2023/06/15 03:17:10;;;;;;;8.55;5.10;;;16.00;99.90;;;;;;10372344;28;20585;-85
2023/06/15 03:22:14;;;;;;;6.88;5.95;;;16.00;99.90;;;;;;10390076;28;20259;-85
2023/06/15 03:27:17;;;;;;;6.03;5.53;;;16.10;99.90;;;;;;10407430;28;20681;-84
2023/06/15 03:32:20;;;;;;;7.97;6.68;;;16.20;99.90;;;;;;10416748;28;20295;-85
2023/06/15 03:37:23;;;;;;;9.85;7.55;;;16.00;99.90;;;;;;10430697;28;20284;-85
2023/06/15 03:42:26;;;;;;;7.82;7.13;;;15.70;99.90;;;;;;10430998;28;20265;-85
2023/06/15 03:47:31;;;;;;;6.55;5.60;;;15.50;99.90;;;;;;10385418;28;20231;-85
2023/06/15 03:52:35;;;;;;;5.30;4.82;;;15.50;99.90;;;;;;10436536;28;20703;-85
2023/06/15 03:57:38;;;;;;;9.40;6.72;;;15.80;99.90;;;;;;10389706;28;20245;-85
2023/06/15 04:02:41;;;;;;;15.52;7.15;;;16.10;99.90;;;;;;10409127;28;20263;-85
2023/06/15 04:07:47;;;;;;;5.97;5.38;;;16.10;99.90;;;;;;10405997;28;20226;-85
2023/06/15 04:12:50;;;;;;;5.43;4.70;;;15.80;99.90;;;;;;10407118;28;20683;-85
2023/06/15 04:17:53;;;;;;;7.57;5.68;;;16.00;99.90;;;;;;10373684;28;20200;-85
2023/06/15 04:22:57;;;;;;;6.75;6.00;;;16.20;99.90;;;;;;10402566;28;20262;-85
2023/06/15 04:27:59;;;;;;;5.40;4.82;;;16.30;99.90;;;;;;10422460;28;20267;-85
2023/06/15 04:33:04;;;;;;;6.28;5.15;;;16.40;99.90;;;;;;10388494;28;20644;-85
2023/06/15 04:38:12;;;;;;;5.10;4.60;;;16.50;99.90;;;;;;10388931;28;20297;-85
2023/06/15 04:43:18;;;;;;;6.03;5.43;;;16.60;99.90;;;;;;10409279;28;20242;-85
2023/06/15 04:48:27;;;;;;;5.70;4.82;;;16.60;99.90;;;;;;10386711;28;20238;-85
2023/06/15 04:53:30;;;;;;;7.45;4.55;;;16.50;99.90;;;;;;10421102;28;20364;-85
2023/06/15 04:58:33;;;;;;;4.60;4.20;;;16.50;99.90;;;;;;10403663;28;20266;-85
2023/06/15 05:03:35;;;;;;;7.18;5.00;;;16.70;99.90;;;;;;10394515;28;20239;-85
2023/06/15 05:08:39;;;;;;;4.68;3.50;;;16.80;99.90;;;;;;10418929;28;20246;-85
2023/06/15 05:13:42;;;;;;;6.68;5.07;;;16.60;99.90;;;;;;10406134;28;20293;-85
2023/06/15 05:18:46;;;;;;;5.00;4.43;;;16.60;99.90;;;;;;10393721;28;20267;-85
2023/06/15 05:23:49;;;;;;;4.53;4.13;;;16.60;99.90;;;;;;10394552;28;20294;-85
2023/06/15 05:28:52;;;;;;;6.07;5.30;;;16.50;99.90;;;;;;10439738;28;20258;-85
2023/06/15 05:33:55;;;;;;;6.97;4.78;;;16.40;99.90;;;;;;10416641;28;20293;-85
2023/06/15 05:38:58;;;;;;;5.28;4.32;;;16.50;99.90;;;;;;10410317;28;20247;-84
2023/06/15 05:44:02;;;;;;;9.85;4.25;;;16.60;99.90;;;;;;10392300;28;20257;-85
2023/06/15 05:49:05;;;;;;;7.03;4.78;;;16.80;99.90;;;;;;10391909;28;20286;-84
2023/06/15 05:54:07;;;;;;;5.18;4.68;;;17.10;99.90;;;;;;10392641;28;20235;-85
2023/06/15 05:59:10;;;;;;;8.88;4.45;;;17.10;99.90;;;;;;10413037;28;20709;-84
2023/06/15 06:04:34;;;;;;;6.15;5.00;;;17.20;99.90;;;;;;10414030;28;20289;-84
2023/06/15 06:09:37;;;;;;;4.90;4.40;;;17.20;99.90;;;;;;10391570;28;20230;-83
2023/06/15 06:14:41;;;;;;;7.25;4.40;;;17.20;99.90;;;;;;10407589;28;20682;-84
2023/06/15 06:19:51;;;;;;;8.23;5.88;;;17.40;99.90;;;;;;10420880;28;20312;-84
2023/06/15 06:24:55;;;;;;;5.07;4.57;;;17.60;99.90;;;;;;10433645;28;20207;-84
2023/06/15 06:29:59;;;;;;;5.53;4.10;;;17.70;99.90;;;;;;10431136;28;20311;-84
2023/06/15 06:35:01;;;;;;;5.80;3.97;;;17.80;99.90;;;;;;10429746;28;20704;-84
2023/06/15 06:40:06;;;;;;;4.38;3.97;;;18.10;99.90;;;;;;10443462;28;20278;-85
2023/06/15 06:45:18;;;;;;;5.13;4.25;;;18.20;99.70;;;;;;10418727;28;20224;-87
2023/06/15 06:50:21;;;;;;;4.78;4.30;;;18.40;98.40;;;;;;10395887;28;20320;-88
2023/06/15 06:55:23;;;;;;;8.70;4.75;;;18.80;97.70;;;;;;10440758;28;20235;-87
2023/06/15 07:00:28;;;;;;;7.00;4.70;;;19.10;97.50;;;;;;10430458;28;20255;-87
2023/06/15 07:05:31;;;;;;;8.80;4.90;;;19.50;96.10;;;;;;10410880;28;20265;-86
2023/06/15 07:10:33;;;;;;;4.47;4.07;;;19.60;94.60;;;;;;10440220;28;20703;-86
2023/06/15 07:15:36;;;;;;;9.10;5.97;;;19.60;94.30;;;;;;10449037;28;20230;-86
2023/06/15 07:20:38;;;;;;;5.40;4.50;;;19.60;93.30;;;;;;10389656;28;20285;-85
2023/06/15 07:25:41;;;;;;;5.95;5.28;;;19.70;94.70;;;;;;10388992;28;20280;-87
2023/06/15 07:30:46;;;;;;;9.27;5.93;;;19.80;93.70;;;;;;10444205;28;20645;-86
2023/06/15 07:35:48;;;;;;;9.00;6.07;;;20.00;93.40;;;;;;10425928;28;20781;-86
2023/06/15 07:40:51;;;;;;;6.68;5.00;;;20.10;93.10;;;;;;10429390;28;20312;-87
2023/06/15 07:45:53;;;;;;;6.13;5.25;;;20.30;93.70;;;;;;10412536;28;20257;-88
2023/06/15 07:50:56;;;;;;;6.40;4.75;;;20.40;91.60;;;;;;10430224;28;20642;-87
2023/06/15 07:55:58;;;;;;;5.72;5.13;;;20.60;92.70;;;;;;10447489;28;20242;-87
2023/06/15 08:01:01;;;;;;;6.50;5.82;;;20.90;91.70;;;;;;10423719;28;20299;-89
2023/06/15 08:06:03;;;;;;;6.05;4.47;;;21.10;89.60;;;;;;10428376;28;20260;-88
2023/06/15 08:11:06;;;;;;;9.07;6.10;;;21.20;90.60;;;;;;10413157;28;20619;-87
2023/06/15 08:16:09;;;;;;;7.82;5.18;;;21.20;87.40;;;;;;10447328;28;20687;-86
2023/06/15 08:21:12;;;;;;;6.25;4.45;;;21.10;88.40;;;;;;10440683;28;20258;-85
2023/06/15 08:26:15;;;;;;;4.20;3.85;;;21.30;87.40;;;;;;10437309;28;20304;-86
2023/06/15 08:31:19;;;;;;;5.53;4.63;;;21.30;89.70;;;;;;10441943;28;20322;-86
2023/06/15 08:36:22;;;;;;;7.25;6.50;;;21.20;88.40;;;;;;10436364;28;20305;-86
2023/06/15 08:41:26;;;;;;;4.70;3.88;;;21.20;86.40;;;;;;10427557;28;20263;-86
2023/06/15 08:46:29;;;;;;;7.45;5.28;;;21.10;90.30;;;;;;10415321;28;20297;-87
2023/06/15 08:51:33;;;;;;;7.13;5.00;;;21.00;87.20;;;;;;10423781;28;20238;-87
2023/06/15 08:56:39;;;;;;;6.15;3.58;;;21.10;84.50;;;;;;10447634;28;20231;-85
2023/06/15 09:01:43;;;;;;;7.57;3.97;;;21.00;84.60;;;;;;10417297;28;20281;-85
2023/06/15 09:06:46;;;;;;;5.20;4.55;;;21.30;85.90;;;;;;10411290;28;20234;-86
2023/06/15 09:11:49;;;;;;;6.38;4.90;;;21.40;80.50;;;;;;10441933;28;20245;-86
2023/06/15 09:16:51;;;;;;;4.30;3.90;;;21.60;79.40;;;;;;10434138;28;20235;-86
2023/06/15 09:21:55;;;;;;;5.85;3.78;;;21.70;79.80;;;;;;10449844;28;20303;-85
2023/06/15 09:26:58;;;;;;;6.03;5.00;;;21.70;82.70;;;;;;10450062;28;20238;-85
2023/06/15 09:32:02;;;;;;;5.90;3.80;;;21.80;75.50;;;;;;10453211;28;20289;-87
2023/06/15 09:37:16;;;;;;;6.50;4.68;;;22.00;79.40;;;;;;10449396;28;20354;-85
2023/06/15 09:42:25;;;;;;;4.50;3.58;;;22.20;75.50;;;;;;10453001;28;20711;-84
2023/06/15 09:47:31;;;;;;;5.63;3.97;;;22.40;79.40;;;;;;10415391;28;20665;-86
2023/06/15 09:52:41;;;;;;;7.88;4.60;;;22.70;70.40;;;;;;10395881;28;20285;-85
2023/06/15 09:57:45;;;;;;;6.10;5.35;;;22.60;69.50;;;;;;10432662;28;20246;-87
2023/06/15 10:02:51;;;;;;;10.60;5.28;;;22.40;65.80;;;;;;10421111;28;20255;-85
2023/06/15 10:07:54;;;;;;;4.70;3.72;;;22.20;64.30;;;;;;10408864;28;20242;-84
2023/06/15 10:12:58;;;;;;;4.47;3.55;;;22.20;71.80;;;;;;10410224;28;20242;-87
2023/06/15 10:18:03;;;;;;;4.63;4.22;;;22.20;70.30;;;;;;10410273;28;20231;-87
2023/06/15 10:23:10;;;;;;;6.85;5.50;;;22.20;72.00;;;;;;10410717;28;20255;-87
2023/06/15 10:28:16;;;;;;;5.45;4.93;;;21.60;67.70;;;;;;10393192;28;20332;-87
2023/06/15 10:33:38;;;;;;;5.35;3.88;;;21.00;74.20;;;;;;10427809;28;20253;-86
2023/06/15 10:38:47;;;;;;;4.38;3.97;;;20.90;80.30;;;;;;10420799;28;20234;-87
2023/06/15 10:44:00;;;;;;;5.57;4.03;;;20.70;78.20;;;;;;10432347;28;20262;-87
2023/06/15 10:49:08;;;;;;;5.05;4.15;;;20.70;82.20;;;;;;10449332;28;20234;-87
2023/06/15 10:54:26;;;;;;;5.05;4.00;;;21.00;84.90;;;;;;10447052;28;20617;-87
2023/06/15 10:59:45;;;;;;;5.05;4.13;;;21.20;82.20;;;;;;10411990;28;20277;-87
2023/06/15 11:04:51;;;;;;;6.13;4.72;;;21.40;81.50;;;;;;10448896;28;20234;-87
2023/06/15 11:09:57;;;;;;;4.13;3.72;;;21.50;76.20;;;;;;10450074;28;20227;-85
2023/06/15 11:15:04;;;;;;;6.35;4.43;;;21.50;80.80;;;;;;10427338;28;20195;-86
2023/06/15 11:20:27;;;;;;;6.97;4.20;;;21.60;74.90;;;;;;10407818;28;20250;-87
2023/06/15 11:25:29;;;;;;;6.05;3.88;;;21.60;74.60;;;;;;10419553;28;20226;-86
2023/06/15 11:30:33;;;;;;;6.90;5.10;;;21.50;76.40;;;;;;10416926;28;20285;-86
2023/06/15 11:35:36;;;;;;;4.78;3.60;;;21.60;72.90;;;;;;10432095;28;20243;-85
2023/06/15 11:40:39;;;;;;;3.35;3.05;;;21.70;75.30;;;;;;10412350;28;20317;-85
2023/06/15 11:45:47;;;;;;;3.90;3.60;;;22.00;79.00;;;;;;10384509;28;20226;-85
2023/06/15 11:50:50;;;;;;;3.67;3.38;;;22.20;76.80;;;;;;10411208;28;20235;-85
2023/06/15 11:55:53;;;;;;;4.68;4.28;;;22.70;76.50;;;;;;10406178;28;20281;-87
2023/06/15 12:01:02;;;;;;;8.55;6.38;;;22.50;75.00;;;;;;10402594;28;20266;-85
2023/06/15 12:06:04;;;;;;;9.25;5.53;;;22.10;73.60;;;;;;10405998;28;20223;-86
2023/06/15 12:11:07;;;;;;;8.05;5.80;;;21.30;77.00;;;;;;10420716;28;20235;-88
2023/06/15 12:16:10;;;;;;;12.73;7.55;;;20.40;91.10;;;;;;10412363;28;20623;-86
2023/06/15 12:21:17;;;;;;;8.00;4.40;;;19.90;95.20;;;;;;10417496;28;20307;-86
2023/06/15 12:26:31;;;;;;;9.00;4.60;;;19.60;96.60;;;;;;10446276;28;20667;-85
2023/06/15 12:31:34;;;;;;;6.82;3.53;;;18.80;97.70;;;;;;10447366;28;20292;-86
2023/06/15 12:36:38;;;;;;;13.45;4.93;;;18.70;99.90;;;;;;10436031;28;20263;-87
2023/06/15 12:41:42;;;;;;;4.75;3.95;;;18.30;99.90;;;;;;10427421;28;20964;-85
2023/06/15 12:46:44;;;;;;;9.15;3.25;;;17.80;99.90;;;;;;10371549;28;20280;-85
2023/06/15 12:51:49;;;;;;;5.97;3.08;;;18.00;99.90;;;;;;10404948;28;20301;-85
2023/06/15 12:56:53;;;;;;;6.80;3.40;;;17.50;99.90;;;;;;10387829;28;20717;-85
2023/06/15 13:01:55;;;;;;;10.68;3.92;;;17.50;99.90;;;;;;10414622;28;20319;-86
2023/06/15 13:06:59;;;;;;;5.18;3.35;;;17.40;99.90;;;;;;10412198;28;20288;-86
2023/06/15 13:12:01;;;;;;;4.75;3.40;;;17.50;99.90;;;;;;10414050;28;20269;-85
2023/06/15 13:17:04;;;;;;;5.30;3.75;;;17.50;99.90;;;;;;10415580;28;20637;-86
2023/06/15 13:22:10;;;;;;;5.18;3.30;;;17.30;99.90;;;;;;10393197;28;20255;-85
2023/06/15 13:27:12;;;;;;;8.40;3.60;;;17.60;99.90;;;;;;10391599;28;20235;-85
2023/06/15 13:32:16;;;;;;;7.20;3.50;;;17.70;99.90;;;;;;10412082;28;20290;-85
2023/06/15 13:37:19;;;;;;;3.63;3.25;;;17.70;99.90;;;;;;10410853;28;20235;-84
2023/06/15 13:42:22;;;;;;;8.70;3.10;;;17.80;99.90;;;;;;10410493;28;20251;-83
2023/06/15 13:47:24;;;;;;;3.53;2.55;;;18.00;99.90;;;;;;10395712;28;20279;-84
2023/06/15 13:52:27;;;;;;;2.47;2.28;;;18.10;99.90;;;;;;10404912;28;20235;-84
2023/06/15 13:57:34;;;;;;;2.97;2.58;;;18.40;99.90;;;;;;10408098;28;20325;-86
2023/06/15 14:02:40;;;;;;;2.92;2.70;;;18.70;99.90;;;;;;10407987;28;20289;-87
2023/06/15 14:07:43;;;;;;;4.85;2.25;;;18.90;99.90;;;;;;10415635;28;20650;-86
2023/06/15 14:12:46;;;;;;;15.07;2.60;;;19.00;99.90;;;;;;10414794;28;20274;-86
2023/06/15 14:17:48;;;;;;;3.08;2.30;;;18.90;99.90;;;;;;10373878;28;20298;-86
2023/06/15 14:22:51;;;;;;;2.65;2.35;;;18.60;99.90;;;;;;10369169;28;20401;-86
2023/06/15 14:27:54;;;;;;;3.25;2.58;;;18.50;99.90;;;;;;10395301;28;20258;-86
2023/06/15 14:32:56;;;;;;;5.38;2.78;;;18.60;99.90;;;;;;10406425;28;21047;-86
2023/06/15 14:37:59;;;;;;;2.78;2.58;;;18.30;99.90;;;;;;10368470;28;20235;-86
2023/06/15 14:43:02;;;;;;;4.07;2.45;;;18.40;99.90;;;;;;10363517;28;20248;-88
2023/06/15 14:48:04;;;;;;;2.97;2.67;;;18.60;99.90;;;;;;10359231;28;20236;-88
2023/06/15 14:53:09;;;;;;;3.15;2.85;;;19.00;99.90;;;;;;10354829;28;20298;-87
2023/06/15 14:58:12;;;;;;;11.95;2.65;;;19.60;99.90;;;;;;10003737;28;10000144;-87
2023/06/15 15:03:14;;;;;;;2.70;2.50;;;20.00;99.90;;;;;;10361039;28;20312;-87
2023/06/15 15:08:17;;;;;;;3.78;3.47;;;20.50;99.90;;;;;;10364446;28;20278;-88
2023/06/15 15:13:20;;;;;;;5.43;3.33;;;20.90;98.80;;;;;;10372288;28;20244;-87
2023/06/15 15:18:22;;;;;;;6.47;4.68;;;21.20;97.20;;;;;;10347102;28;20286;-86
2023/06/15 15:23:28;;;;;;;6.28;4.75;;;21.50;97.10;;;;;;10350613;28;20278;-87
2023/06/15 15:28:31;;;;;;;5.85;5.00;;;21.40;96.00;;;;;;10381170;28;20320;-88
2023/06/15 15:33:34;;;;;;;5.50;3.67;;;21.30;95.10;;;;;;10403531;28;20273;-88
2023/06/15 15:38:37;;;;;;;4.68;4.10;;;21.50;96.10;;;;;;10417945;28;20287;-84
2023/06/15 15:43:39;;;;;;;8.13;5.07;;;21.60;94.20;;;;;;10422642;28;20258;-87
2023/06/15 15:48:42;;;;;;;5.20;4.30;;;21.60;94.10;;;;;;10420085;28;20235;-87
2023/06/15 15:53:44;;;;;;;17.67;4.40;;;21.60;91.20;;;;;;10422488;28;20247;-87
2023/06/15 15:58:47;;;;;;;4.47;3.72;;;21.50;94.00;;;;;;10391137;28;20239;-86
2023/06/15 16:03:52;;;;;;;5.93;5.20;;;21.50;94.60;;;;;;10397757;28;20263;-86
2023/06/15 16:08:55;;;;;;;5.70;5.20;;;21.30;93.30;;;;;;10413511;28;20230;-85
2023/06/15 16:13:58;;;;;;;5.07;4.68;;;21.30;93.90;;;;;;10422002;28;20235;-85
2023/06/15 16:19:00;;;;;;;5.30;4.90;;;21.30;94.60;;;;;;10429669;28;20235;-86
2023/06/15 16:24:03;;;;;;;6.15;5.55;;;21.10;94.80;;;;;;10414382;28;20278;-85
2023/06/15 16:29:06;;;;;;;7.47;4.85;;;20.90;95.80;;;;;;10412540;28;20266;-85
2023/06/15 16:34:08;;;;;;;5.50;5.07;;;21.00;95.80;;;;;;10446877;28;20684;-85
2023/06/15 16:39:35;;;;;;;4.93;4.53;;;21.00;95.50;;;;;;10423753;28;20242;-85
2023/06/15 16:44:37;;;;;;;6.38;3.53;;;21.20;95.30;;;;;;10433742;28;20308;-88
2023/06/15 16:49:47;;;;;;;3.58;3.28;;;21.30;91.00;;;;;;10437239;28;20235;-87
2023/06/15 16:54:50;;;;;;;4.78;3.72;;;21.20;90.60;;;;;;10444141;28;20932;-88
2023/06/15 16:59:53;;;;;;;3.40;3.10;;;21.30;93.20;;;;;;10412936;28;20630;-87
2023/06/15 17:04:55;;;;;;;7.10;3.03;;;21.50;91.70;;;;;;10017705;28;10000661;-87
2023/06/15 17:09:58;;;;;;;4.72;3.25;;;21.00;90.40;;;;;;10443447;28;20257;-87
2023/06/15 17:15:01;;;;;;;3.85;3.33;;;20.70;87.20;;;;;;10390571;28;20262;-87
2023/06/15 17:20:03;;;;;;;7.00;3.40;;;20.40;87.20;;;;;;10409378;28;20231;-88
2023/06/15 17:25:07;;;;;;;4.53;3.45;;;19.90;91.70;;;;;;10418217;28;20277;-85
2023/06/15 17:30:10;;;;;;;3.55;2.58;;;19.80;92.30;;;;;;10364848;23;1264139;-91
2023/06/15 17:35:12;;;;;;;5.50;3.00;;;19.90;91.90;;;;;;10409253;28;20679;-92
2023/06/15 17:40:15;;;;;;;4.75;3.42;;;20.20;92.60;;;;;;10408604;28;20714;-91
2023/06/15 17:45:18;;;;;;;3.97;3.00;;;20.40;92.30;;;;;;10406694;28;20329;-91
2023/06/15 17:50:20;;;;;;;3.22;2.92;;;20.50;91.20;;;;;;10408320;28;20254;-90
2023/06/15 17:55:23;;;;;;;3.78;2.97;;;20.60;90.40;;;;;;10391966;28;20254;-92
2023/06/15 18:00:26;;;;;;;4.20;2.65;;;20.60;90.60;;;;;;10409788;28;20235;-86
2023/06/15 18:05:28;;;;;;;3.15;2.85;;;20.30;91.30;;;;;;10389491;28;20277;-94
2023/06/15 18:10:32;;;;;;;3.08;2.78;;;20.10;92.10;;;;;;10409527;28;20234;-92
2023/06/15 18:15:38;;;;;;;4.97;3.00;;;20.00;92.50;;;;;;10407880;28;20815;-92
2023/06/15 18:20:41;;;;;;;3.13;2.83;;;19.90;92.60;;;;;;10390869;28;20677;-92
2023/06/15 18:25:44;;;;;;;4.15;3.30;;;19.70;93.10;;;;;;10410316;28;20278;-92
2023/06/15 18:30:47;;;;;;;4.35;3.53;;;19.50;94.00;;;;;;10448590;28;20262;-91
2023/06/15 18:35:49;;;;;;;4.10;3.53;;;19.30;95.40;;;;;;10414741;28;20231;-92
2023/06/15 18:40:52;;;;;;;3.67;3.33;;;19.10;96.30;;;;;;10407851;28;20247;-93
2023/06/15 18:45:55;;;;;;;3.95;3.53;;;18.80;99.60;;;;;;10393637;28;20333;-93
2023/06/15 18:51:00;;;;;;;3.80;3.50;;;18.20;99.90;;;;;;10409211;28;20243;-92
2023/06/15 18:56:02;;;;;;;3.28;2.97;;;18.10;99.90;;;;;;10074220;28;10000165;-93
2023/06/15 19:01:08;;;;;;;3.72;3.40;;;18.20;99.90;;;;;;10390228;28;20305;-94
2023/06/15 19:06:11;;;;;;;3.53;3.20;;;18.20;99.90;;;;;;10408326;28;20263;-95
2023/06/15 19:11:14;;;;;;;5.90;5.05;;;17.70;99.90;;;;;;10437804;28;20264;-95
2023/06/15 19:16:16;;;;;;;5.78;5.20;;;17.30;99.90;;;;;;10409998;28;20300;-95
2023/06/15 19:21:19;;;;;;;10.20;5.95;;;17.20;99.90;;;;;;10415532;28;20233;-95
2023/06/15 19:26:25;;;;;;;10.18;4.50;;;17.10;99.90;;;;;;10409871;28;20255;-94
2023/06/15 19:31:29;;;;;;;8.52;6.25;;;17.00;99.90;;;;;;10409209;28;20239;-95
2023/06/15 19:36:32;;;;;;;5.07;4.68;;;16.80;99.90;;;;;;10403693;28;20252;-94
2023/06/15 19:41:35;;;;;;;6.35;5.15;;;16.60;99.90;;;;;;10365174;28;20208;-95
2023/06/15 19:46:37;;;;;;;5.43;4.93;;;16.50;99.90;;;;;;10420560;28;20274;-96
2023/06/15 19:51:41;;;;;;;6.18;4.65;;;16.20;99.90;;;;;;10406380;28;20231;-93
2023/06/15 19:56:44;;;;;;;6.60;5.43;;;16.10;99.90;;;;;;10407879;28;20273;-93
2023/06/15 20:01:47;;;;;;;6.88;4.85;;;16.30;99.90;;;;;;10419238;28;20788;-92
2023/06/15 20:06:49;;;;;;;9.57;5.60;;;16.10;99.90;;;;;;10422722;28;20259;-92
2023/06/15 20:11:52;;;;;;;8.40;5.13;;;16.00;99.90;;;;;;10433601;28;20700;-95
2023/06/15 20:16:55;;;;;;;8.77;5.07;;;15.80;99.90;;;;;;10411147;28;20266;-94
2023/06/15 20:21:57;;;;;;;4.43;3.90;;;15.60;99.90;;;;;;10442288;28;20239;-95
2023/06/15 20:27:01;;;;;;;4.25;3.78;;;15.50;99.90;;;;;;10407264;28;20227;-94
2023/06/15 20:32:04;;;;;;;5.72;4.05;;;15.50;99.90;;;;;;10425308;28;20270;-95
2023/06/15 20:37:07;;;;;;;5.68;5.07;;;15.30;99.90;;;;;;10405580;28;20318;-92
2023/06/15 20:42:11;;;;;;;5.05;4.10;;;15.30;99.90;;;;;;10393898;28;20235;-90
2023/06/15 20:47:13;;;;;;;6.38;4.53;;;15.30;99.90;;;;;;10405960;28;20305;-90
2023/06/15 20:52:16;;;;;;;12.85;4.80;;;15.20;99.90;;;;;;10436608;28;20281;-90
2023/06/15 20:57:19;;;;;;;5.43;4.93;;;15.10;99.90;;;;;;10420083;28;20320;-90
2023/06/15 21:02:25;;;;;;;14.25;4.68;;;15.10;99.90;;;;;;10432879;28;20236;-91
2023/06/15 21:07:28;;;;;;;6.20;3.88;;;14.70;99.90;;;;;;10449255;28;20850;-90
2023/06/15 21:12:30;;;;;;;5.30;4.90;;;14.90;99.90;;;;;;10413723;28;20243;-91
2023/06/15 21:17:35;;;;;;;6.93;5.32;;;14.60;99.90;;;;;;10444483;28;20207;-91
2023/06/15 21:22:38;;;;;;;6.05;5.05;;;14.20;99.90;;;;;;10430027;28;20238;-91
2023/06/15 21:27:40;;;;;;;6.28;4.55;;;14.40;99.90;;;;;;10422685;28;20640;-91
2023/06/15 21:32:43;;;;;;;6.57;6.00;;;14.50;99.90;;;;;;10410106;28;20646;-90
2023/06/15 21:37:45;;;;;;;8.48;5.35;;;14.30;99.90;;;;;;10410558;28;20266;-90
2023/06/15 21:42:48;;;;;;;7.75;6.38;;;14.30;99.90;;;;;;10411788;28;20313;-90
2023/06/15 21:47:51;;;;;;;6.25;5.20;;;14.30;99.90;;;;;;10431223;28;20675;-90
2023/06/15 21:52:57;;;;;;;9.70;5.70;;;14.20;99.90;;;;;;10411929;28;20678;-90
2023/06/15 21:58:00;;;;;;;4.47;4.07;;;14.00;99.90;;;;;;10411425;28;20627;-91
2023/06/15 22:03:03;;;;;;;5.68;5.00;;;14.00;99.90;;;;;;10421835;28;20292;-90
2023/06/15 22:08:05;;;;;;;7.22;5.50;;;14.40;99.90;;;;;;10446000;28;20257;-91
2023/06/15 22:13:09;;;;;;;5.20;4.70;;;14.10;99.90;;;;;;10426281;28;20235;-90
2023/06/15 22:18:12;;;;;;;5.57;5.07;;;14.10;99.90;;;;;;10408075;28;20269;-90
2023/06/15 22:23:15;;;;;;;6.07;5.57;;;14.20;99.90;;;;;;10403507;28;20263;-90
2023/06/15 22:28:19;;;;;;;7.15;5.88;;;14.00;99.90;;;;;;10410739;28;20231;-91
2023/06/15 22:33:23;;;;;;;6.60;5.97;;;13.90;99.90;;;;;;10388264;28;20264;-91
2023/06/15 22:38:26;;;;;;;5.00;4.60;;;13.80;99.90;;;;;;10450363;28;20230;-91
2023/06/15 22:43:29;;;;;;;7.05;6.43;;;13.70;99.90;;;;;;10438676;28;20309;-91
2023/06/15 22:48:37;;;;;;;7.10;6.40;;;13.50;99.90;;;;;;10433017;28;20372;-92
2023/06/15 22:53:40;;;;;;;8.52;6.45;;;13.40;99.90;;;;;;10450861;28;20231;-91
2023/06/15 22:58:44;;;;;;;7.22;6.45;;;13.30;99.90;;;;;;10449336;28;20257;-91
2023/06/15 23:03:47;;;;;;;7.00;5.50;;;13.40;99.90;;;;;;10417833;28;20239;-91
2023/06/15 23:08:53;;;;;;;5.72;3.50;;;13.40;99.90;;;;;;10391671;28;20768;-91
2023/06/15 23:13:58;;;;;;;8.60;5.85;;;13.50;99.90;;;;;;10417814;28;20242;-91
2023/06/15 23:19:03;;;;;;;7.93;6.30;;;13.60;99.90;;;;;;10384631;28;20303;-91
2023/06/15 23:24:07;;;;;;;5.88;5.28;;;13.50;99.90;;;;;;10368370;28;20251;-91
2023/06/15 23:29:10;;;;;;;7.40;5.20;;;13.50;99.90;;;;;;10401458;28;20713;-91
2023/06/15 23:34:12;;;;;;;6.43;5.82;;;13.40;99.90;;;;;;10404499;28;20681;-91
2023/06/15 23:39:15;;;;;;;5.90;5.25;;;13.50;99.90;;;;;;10435101;28;20293;-91
2023/06/15 23:44:17;;;;;;;5.78;5.20;;;13.30;99.90;;;;;;10408140;28;20246;-90
2023/06/15 23:49:20;;;;;;;6.50;5.05;;;12.90;99.90;;;;;;10423692;28;20230;-91
2023/06/15 23:54:22;;;;;;;7.53;5.40;;;12.90;99.90;;;;;;10449908;28;20265;-90
2023/06/15 23:59:25;;;;;;;5.13;4.70;;;13.00;99.90;;;;;;10449464;28;20238;-91
